createdAt,value
2019-04-14T00:02:01.017Z,86.14
2019-04-14T00:04:35.524Z,86.35
2019-04-14T00:07:05.882Z,86.47
2019-04-14T00:09:35.804Z,86.55
2019-04-14T00:12:07.982Z,86.71
2019-04-14T00:14:38.226Z,86.63
2019-04-14T00:17:08.752Z,86.60
2019-04-14T00:19:39.137Z,86.67
2019-04-14T00:22:09.422Z,86.75
2019-04-14T00:24:40.054Z,86.83
2019-04-14T00:27:10.647Z,86.79
2019-04-14T00:29:41.406Z,86.78
2019-04-14T00:32:11.710Z,86.77
2019-04-14T00:34:42.023Z,86.86
2019-04-14T00:37:25.240Z,86.95
2019-04-14T00:39:57.522Z,87.01
2019-04-14T00:42:29.855Z,86.97
2019-04-14T00:45:01.039Z,86.90
2019-04-14T00:47:33.138Z,86.85
2019-04-14T00:50:03.661Z,86.81
2019-04-14T00:52:34.048Z,86.75
2019-04-14T00:55:05.350Z,86.67
2019-04-14T00:57:35.602Z,86.57
2019-04-14T01:00:08.252Z,86.52
2019-04-14T01:02:38.539Z,86.42
2019-04-14T01:05:08.965Z,86.40
2019-04-14T01:07:39.169Z,86.57
2019-04-14T01:10:10.304Z,86.66
2019-04-14T01:12:40.933Z,86.74
2019-04-14T01:15:11.601Z,86.73
2019-04-14T01:17:41.785Z,86.83
2019-04-14T01:20:12.501Z,86.90
2019-04-14T01:22:42.443Z,86.97
2019-04-14T01:25:12.852Z,86.87
2019-04-14T01:27:42.896Z,86.77
2019-04-14T01:30:13.339Z,86.94
2019-04-14T01:32:43.663Z,87.06
2019-04-14T01:35:13.863Z,87.14
2019-04-14T01:37:44.109Z,87.06
2019-04-14T01:40:14.199Z,87.04
2019-04-14T01:42:44.231Z,87.07
2019-04-14T01:45:16.471Z,87.09
2019-04-14T01:47:46.761Z,87.02
2019-04-14T01:50:19.131Z,86.91
2019-04-14T01:53:09.608Z,86.73
2019-04-14T01:55:52.811Z,86.60
2019-04-14T01:58:25.074Z,86.53
2019-04-14T02:01:10.445Z,86.62
2019-04-14T02:03:40.982Z,86.75
2019-04-14T02:06:11.462Z,86.84
2019-04-14T02:08:41.524Z,86.83
2019-04-14T02:11:11.647Z,86.77
2019-04-14T02:13:42.098Z,86.86
2019-04-14T02:16:22.992Z,87.02
2019-04-14T02:18:43.240Z,87.02
2019-04-14T02:21:12.947Z,87.11
2019-04-14T02:23:43.351Z,86.97
2019-04-14T02:26:13.280Z,86.90
2019-04-14T02:28:43.869Z,86.83
2019-04-14T02:31:34.461Z,86.78
2019-04-14T02:34:15.716Z,86.70
2019-04-14T02:39:22.293Z,86.64
2019-04-14T02:41:57.037Z,86.81
2019-04-14T02:49:20.418Z,86.61
2019-04-14T02:51:49.779Z,86.70
2019-04-14T02:54:29.075Z,86.90
2019-04-14T02:56:52.516Z,87.02
2019-04-14T02:59:22.953Z,87.04
2019-04-14T03:02:09.716Z,87.04
2019-04-14T03:04:25.488Z,86.97
2019-04-14T03:06:54.781Z,86.90
2019-04-14T03:09:36.358Z,86.79
2019-04-14T03:12:00.855Z,86.61
2019-04-14T03:19:44.006Z,86.43
2019-04-14T03:24:42.188Z,86.42
2019-04-14T03:27:33.040Z,86.47
2019-04-14T03:30:26.201Z,86.47
2019-04-14T03:32:52.990Z,86.30
2019-04-14T03:35:30.201Z,86.12
2019-04-14T03:37:48.575Z,86.03
2019-04-14T03:40:10.124Z,86.10
2019-04-14T03:45:20.653Z,86.20
2019-04-14T03:47:42.042Z,86.18
2019-04-14T03:50:16.486Z,86.16
2019-04-14T03:52:53.360Z,86.15
2019-04-14T03:55:09.712Z,85.81
2019-04-14T03:57:22.006Z,85.98
2019-04-14T03:59:52.124Z,86.09
2019-04-14T04:02:22.631Z,86.19
2019-04-14T04:04:53.327Z,86.26
2019-04-14T04:07:23.549Z,86.31
2019-04-14T04:09:58.351Z,86.26
2019-04-14T04:12:29.171Z,86.35
2019-04-14T04:14:59.692Z,86.29
2019-04-14T04:17:42.995Z,86.22
2019-04-14T04:20:15.161Z,86.04
2019-04-14T04:23:05.186Z,86.08
2019-04-14T04:25:37.522Z,86.20
2019-04-14T04:28:25.640Z,86.05
2019-04-14T04:31:02.738Z,85.98
2019-04-14T04:33:50.154Z,86.13
2019-04-14T04:36:22.506Z,86.14
2019-04-14T04:38:57.452Z,86.29
2019-04-14T04:41:27.532Z,86.20
2019-04-14T04:43:58.186Z,86.19
2019-04-14T04:46:28.775Z,85.97
2019-04-14T04:49:09.098Z,86.07
2019-04-14T04:51:31.071Z,86.14
2019-04-14T04:54:01.705Z,86.12
2019-04-14T04:56:31.852Z,85.87
2019-04-14T04:59:01.499Z,85.84
2019-04-14T05:01:31.785Z,85.75
2019-04-14T05:04:02.414Z,85.80
2019-04-14T05:07:01.756Z,85.72
2019-04-14T05:09:34.615Z,85.75
2019-04-14T05:12:21.728Z,85.81
2019-04-14T05:14:52.250Z,85.70
2019-04-14T05:17:26.068Z,85.74
2019-04-14T05:19:56.250Z,85.75
2019-04-14T05:22:26.754Z,85.76
2019-04-14T05:24:57.198Z,85.80
2019-04-14T05:27:27.640Z,85.65
2019-04-14T05:29:58.017Z,85.51
2019-04-14T05:32:28.383Z,85.41
2019-04-14T05:34:58.675Z,85.30
2019-04-14T05:37:29.017Z,85.20
2019-04-14T05:39:59.365Z,85.09
2019-04-14T05:42:30.105Z,84.81
2019-04-14T05:45:00.072Z,84.71
2019-04-14T05:47:30.554Z,84.86
2019-04-14T05:50:00.903Z,84.90
2019-04-14T05:52:31.767Z,84.98
2019-04-14T05:55:04.467Z,84.93
2019-04-14T05:57:35.186Z,84.82
2019-04-14T06:00:10.833Z,84.88
2019-04-14T06:02:40.401Z,85.22
2019-04-14T06:05:11.395Z,85.36
2019-04-14T06:07:41.243Z,85.44
2019-04-14T06:10:11.238Z,85.04
2019-04-14T06:12:40.778Z,85.00
2019-04-14T06:15:11.158Z,84.88
2019-04-14T06:17:41.066Z,84.69
2019-04-14T06:20:11.358Z,84.83
2019-04-14T06:22:40.950Z,84.88
2019-04-14T06:25:10.949Z,84.86
2019-04-14T06:27:40.502Z,84.75
2019-04-14T06:30:15.073Z,84.51
2019-04-14T06:32:46.593Z,84.22
2019-04-14T06:35:20.659Z,84.30
2019-04-14T06:37:51.884Z,84.39
2019-04-14T06:40:23.096Z,84.52
2019-04-14T06:42:52.635Z,84.36
2019-04-14T06:45:22.201Z,84.18
2019-04-14T06:47:51.797Z,83.84
2019-04-14T06:50:21.330Z,83.83
2019-04-14T06:52:50.927Z,83.98
2019-04-14T06:55:20.619Z,84.17
2019-04-14T06:57:50.187Z,83.95
2019-04-14T07:00:19.726Z,83.59
2019-04-14T07:02:49.284Z,83.83
2019-04-14T07:05:19.072Z,83.86
2019-04-14T07:07:56.949Z,83.50
2019-04-14T07:10:23.324Z,83.17
2019-04-14T07:12:52.920Z,82.58
2019-04-14T07:15:22.684Z,82.43
2019-04-14T07:17:52.285Z,81.77
2019-04-14T07:20:21.805Z,81.79
2019-04-14T07:22:51.414Z,82.09
2019-04-14T07:25:27.206Z,81.92
2019-04-14T07:28:02.848Z,81.75
2019-04-14T07:30:50.333Z,81.32
2019-04-14T07:33:27.906Z,81.47
2019-04-14T07:36:17.182Z,81.81
2019-04-14T07:38:48.417Z,81.39
2019-04-14T07:41:25.141Z,80.23
2019-04-14T07:43:56.347Z,79.87
2019-04-14T07:46:42.358Z,78.96
2019-04-14T07:49:32.871Z,78.92
2019-04-14T07:52:14.569Z,77.98
2019-04-14T07:55:01.997Z,77.70
2019-04-14T07:57:39.131Z,76.82
2019-04-14T08:00:10.673Z,75.82
2019-04-14T08:02:47.360Z,74.52
2019-04-14T08:05:24.519Z,74.81
2019-04-14T08:07:54.048Z,74.12
2019-04-14T08:10:23.711Z,74.21
2019-04-14T08:12:53.315Z,73.71
2019-04-14T08:15:22.864Z,73.98
2019-04-14T08:17:52.400Z,73.86
2019-04-14T08:20:27.693Z,73.28
2019-04-14T08:22:53.649Z,72.11
2019-04-14T08:25:23.315Z,71.45
2019-04-14T08:27:52.879Z,72.04
2019-04-14T08:30:22.719Z,71.38
2019-04-14T08:32:52.255Z,70.63
2019-04-14T08:35:21.803Z,70.19
2019-04-14T08:37:51.344Z,69.09
2019-04-14T08:40:23.794Z,69.22
2019-04-14T08:43:03.794Z,69.69
2019-04-14T08:45:51.055Z,69.31
2019-04-14T08:48:38.361Z,69.17
2019-04-14T08:51:07.934Z,69.81
2019-04-14T08:53:44.946Z,67.75
2019-04-14T08:56:31.522Z,66.96
2019-04-14T08:59:19.066Z,67.12
2019-04-14T09:01:56.415Z,66.74
2019-04-14T09:04:31.951Z,67.16
2019-04-14T09:07:10.221Z,66.65
2019-04-14T09:09:41.457Z,65.16
2019-04-14T09:12:15.869Z,64.75
2019-04-14T09:14:56.287Z,65.23
2019-04-14T09:17:16.140Z,63.95
2019-04-14T09:19:45.695Z,63.96
2019-04-14T09:22:15.838Z,63.96
2019-04-14T09:24:45.406Z,63.23
2019-04-14T09:27:23.552Z,62.69
2019-04-14T09:29:54.247Z,62.53
2019-04-14T09:32:25.494Z,62.22
2019-04-14T09:34:55.077Z,59.64
2019-04-14T09:37:25.116Z,60.15
2019-04-14T09:39:58.259Z,58.87
2019-04-14T09:42:31.851Z,57.51
2019-04-14T09:45:01.606Z,58.57
2019-04-14T09:47:31.226Z,58.55
2019-04-14T09:50:01.049Z,59.96
2019-04-14T09:52:30.730Z,60.33
2019-04-14T09:55:00.391Z,59.45
2019-04-14T09:57:29.945Z,58.12
2019-04-14T09:59:59.627Z,58.08
2019-04-14T10:02:29.191Z,58.06
2019-04-14T10:04:58.754Z,57.76
2019-04-14T10:07:28.496Z,55.91
2019-04-14T10:09:58.140Z,55.25
2019-04-14T10:12:27.723Z,56.28
2019-04-14T10:14:57.285Z,55.77
2019-04-14T10:17:26.874Z,55.53
2019-04-14T10:19:56.453Z,55.99
2019-04-14T10:22:33.719Z,54.14
2019-04-14T10:24:57.389Z,54.38
2019-04-14T10:27:28.219Z,55.70
2019-04-14T10:29:57.732Z,55.08
2019-04-14T10:32:27.404Z,53.32
2019-04-14T10:34:58.078Z,53.89
2019-04-14T10:37:27.648Z,54.16
2019-04-14T10:39:57.444Z,52.80
2019-04-14T10:42:26.999Z,52.66
2019-04-14T10:44:56.581Z,52.97
2019-04-14T10:47:27.078Z,53.40
2019-04-14T10:49:56.837Z,53.89
2019-04-14T10:52:26.484Z,54.02
2019-04-14T10:54:56.108Z,54.07
2019-04-14T10:57:26.168Z,54.64
2019-04-14T10:59:56.086Z,53.54
2019-04-14T11:02:25.636Z,52.40
2019-04-14T11:04:55.195Z,54.06
2019-04-14T11:07:29.369Z,53.94
2019-04-14T11:09:58.887Z,53.45
2019-04-14T11:12:29.699Z,53.11
2019-04-14T11:15:04.152Z,51.67
2019-04-14T11:17:33.951Z,51.94
2019-04-14T11:20:05.509Z,52.63
2019-04-14T11:22:35.094Z,52.73
2019-04-14T11:25:06.264Z,53.13
2019-04-14T11:27:36.132Z,53.59
2019-04-14T11:30:09.381Z,53.80
2019-04-14T11:32:47.548Z,52.63
2019-04-14T11:35:18.748Z,52.38
2019-04-14T11:38:06.678Z,50.63
2019-04-14T11:40:38.858Z,51.71
2019-04-14T11:43:08.398Z,50.24
2019-04-14T11:45:38.058Z,50.92
2019-04-14T11:48:07.603Z,51.00
2019-04-14T11:50:37.241Z,50.80
2019-04-14T11:53:06.881Z,51.13
2019-04-14T11:55:36.516Z,51.29
2019-04-14T11:58:06.212Z,51.56
2019-04-14T12:00:53.263Z,51.15
2019-04-14T12:03:27.048Z,50.74
2019-04-14T12:06:14.839Z,49.40
2019-04-14T12:09:04.176Z,47.52
2019-04-14T12:11:33.786Z,47.89
2019-04-14T12:14:03.441Z,50.03
2019-04-14T12:16:33.245Z,49.90
2019-04-14T12:19:02.951Z,47.05
2019-04-14T12:21:32.715Z,46.64
2019-04-14T12:24:02.317Z,47.50
2019-04-14T12:26:31.843Z,48.24
2019-04-14T12:29:02.998Z,49.14
2019-04-14T12:31:33.269Z,49.10
2019-04-14T12:34:02.815Z,49.69
2019-04-14T12:36:32.547Z,49.37
2019-04-14T12:39:02.209Z,50.01
2019-04-14T12:41:35.902Z,50.23
2019-04-14T12:44:19.048Z,48.76
2019-04-14T12:46:50.300Z,49.43
2019-04-14T12:49:34.087Z,49.63
2019-04-14T12:52:03.426Z,50.27
2019-04-14T12:54:33.026Z,49.94
2019-04-14T12:57:02.972Z,49.72
2019-04-14T12:59:34.177Z,49.39
2019-04-14T13:02:23.572Z,49.44
2019-04-14T13:04:55.331Z,49.32
2019-04-14T13:07:24.405Z,49.81
2019-04-14T13:09:54.103Z,49.59
2019-04-14T13:12:23.945Z,50.12
2019-04-14T13:14:53.542Z,50.73
2019-04-14T13:17:23.103Z,50.67
2019-04-14T13:19:52.668Z,50.17
2019-04-14T13:22:33.442Z,50.83
2019-04-14T13:24:53.526Z,50.07
2019-04-14T13:27:23.377Z,49.36
2019-04-14T13:29:54.085Z,49.66
2019-04-14T13:32:35.423Z,49.31
2019-04-14T13:34:54.967Z,48.78
2019-04-14T13:37:24.599Z,49.23
2019-04-14T13:39:54.470Z,49.22
2019-04-14T13:42:24.058Z,49.27
2019-04-14T13:44:53.644Z,50.33
2019-04-14T13:47:23.230Z,51.16
2019-04-14T13:49:52.852Z,50.70
2019-04-14T13:52:22.593Z,50.19
2019-04-14T13:54:52.216Z,50.73
2019-04-14T13:57:21.809Z,50.86
2019-04-14T13:59:51.382Z,50.72
2019-04-14T14:02:20.993Z,51.73
2019-04-14T14:04:50.701Z,50.89
2019-04-14T14:07:20.585Z,51.12
2019-04-14T14:09:50.265Z,51.44
2019-04-14T14:12:36.559Z,52.24
2019-04-14T14:15:08.297Z,52.84
2019-04-14T14:17:48.514Z,52.87
2019-04-14T14:20:33.023Z,52.58
2019-04-14T14:23:04.173Z,52.64
2019-04-14T14:25:39.612Z,52.71
2019-04-14T14:28:09.284Z,52.80
2019-04-14T14:30:38.841Z,52.60
2019-04-14T14:33:08.432Z,53.18
2019-04-14T14:35:37.992Z,52.89
2019-04-14T14:38:07.879Z,52.00
2019-04-14T14:40:37.460Z,51.79
2019-04-14T14:43:07.198Z,51.79
2019-04-14T14:45:50.354Z,52.22
2019-04-14T14:48:24.336Z,52.92
2019-04-14T14:51:11.217Z,52.44
2019-04-14T14:53:40.810Z,52.31
2019-04-14T14:56:10.400Z,52.95
2019-04-14T14:58:40.140Z,52.71
2019-04-14T15:01:09.720Z,52.26
2019-04-14T15:03:39.257Z,52.56
2019-04-14T15:06:09.021Z,52.76
2019-04-14T15:08:38.553Z,52.62
2019-04-14T15:11:08.212Z,51.92
2019-04-14T15:13:37.930Z,52.10
2019-04-14T15:16:09.076Z,52.29
2019-04-14T15:18:42.577Z,52.68
2019-04-14T15:21:12.815Z,53.08
2019-04-14T15:23:42.529Z,53.97
2019-04-14T15:26:12.103Z,53.82
2019-04-14T15:28:42.540Z,53.61
2019-04-14T15:31:13.432Z,54.22
2019-04-14T15:33:43.198Z,54.20
2019-04-14T15:36:12.833Z,54.24
2019-04-14T15:38:42.397Z,54.61
2019-04-14T15:41:12.102Z,54.78
2019-04-14T15:43:41.754Z,55.11
2019-04-14T15:46:11.321Z,55.16
2019-04-14T15:48:40.871Z,55.38
2019-04-14T15:51:10.476Z,55.44
2019-04-14T15:53:40.038Z,55.11
2019-04-14T15:56:11.762Z,54.68
2019-04-14T15:58:44.767Z,54.45
2019-04-14T16:01:19.729Z,54.55
2019-04-14T16:03:52.108Z,54.37
2019-04-14T16:06:32.651Z,54.26
2019-04-14T16:09:13.184Z,54.42
2019-04-14T16:11:48.933Z,55.41
2019-04-14T16:14:24.110Z,54.90
2019-04-14T16:17:11.916Z,55.33
2019-04-14T16:20:01.459Z,55.53
2019-04-14T16:22:31.777Z,56.45
2019-04-14T16:25:01.572Z,56.47
2019-04-14T16:27:32.911Z,56.83
2019-04-14T16:30:20.720Z,57.01
2019-04-14T16:33:01.051Z,56.97
2019-04-14T16:35:38.970Z,56.97
2019-04-14T16:38:09.486Z,56.38
2019-04-14T16:40:39.363Z,56.21
2019-04-14T16:43:09.313Z,55.76
2019-04-14T16:45:39.194Z,56.24
2019-04-14T16:48:08.960Z,56.36
2019-04-14T16:50:38.764Z,56.73
2019-04-14T16:53:14.360Z,56.81
2019-04-14T16:55:58.038Z,57.34
2019-04-14T16:58:29.399Z,57.65
2019-04-14T17:01:03.880Z,57.59
2019-04-14T17:03:34.011Z,57.47
2019-04-14T17:06:04.459Z,57.66
2019-04-14T17:08:34.217Z,57.84
2019-04-14T17:11:04.382Z,57.83
2019-04-14T17:13:35.898Z,57.88
2019-04-14T17:16:24.118Z,58.09
2019-04-14T17:19:12.599Z,58.42
2019-04-14T17:21:44.256Z,58.48
2019-04-14T17:24:31.069Z,59.02
2019-04-14T17:27:10.000Z,59.21
2019-04-14T17:29:44.695Z,59.68
2019-04-14T17:32:22.417Z,59.83
2019-04-14T17:35:00.350Z,59.88
2019-04-14T17:37:50.841Z,59.70
2019-04-14T17:40:22.598Z,60.02
2019-04-14T17:42:56.611Z,60.06
2019-04-14T17:45:33.662Z,59.90
2019-04-14T17:48:17.766Z,60.01
2019-04-14T17:51:05.909Z,59.98
2019-04-14T17:53:40.991Z,59.85
2019-04-14T17:56:12.757Z,60.24
2019-04-14T17:58:42.353Z,60.56
2019-04-14T18:01:17.945Z,60.81
2019-04-14T18:03:49.671Z,60.89
2019-04-14T18:06:27.689Z,61.02
2019-04-14T18:09:15.673Z,61.12
2019-04-14T18:12:03.586Z,61.24
2019-04-14T18:14:51.044Z,61.24
2019-04-14T18:17:31.255Z,61.53
2019-04-14T18:20:02.666Z,61.62
2019-04-14T18:22:32.551Z,61.79
2019-04-14T18:25:02.245Z,61.89
2019-04-14T18:27:33.753Z,62.10
2019-04-14T18:30:22.062Z,62.06
2019-04-14T18:33:09.786Z,62.42
2019-04-14T18:35:56.498Z,62.69
2019-04-14T18:38:33.661Z,62.84
2019-04-14T18:41:23.613Z,63.29
2019-04-14T18:44:03.972Z,63.70
2019-04-14T18:46:47.807Z,63.79
2019-04-14T18:49:25.630Z,64.00
2019-04-14T18:52:07.113Z,64.47
2019-04-14T18:54:55.014Z,64.58
2019-04-14T18:57:35.587Z,64.61
2019-04-14T19:00:08.460Z,64.86
2019-04-14T19:02:38.644Z,64.94
2019-04-14T19:05:08.554Z,65.14
2019-04-14T19:07:38.661Z,65.73
2019-04-14T19:10:09.434Z,66.05
2019-04-14T19:12:43.464Z,66.05
2019-04-14T19:15:24.289Z,66.21
2019-04-14T19:17:58.690Z,66.62
2019-04-14T19:20:28.750Z,67.00
2019-04-14T19:22:58.685Z,67.27
2019-04-14T19:25:28.835Z,67.30
2019-04-14T19:27:58.836Z,67.10
2019-04-14T19:30:28.837Z,67.35
2019-04-14T19:32:58.507Z,67.58
2019-04-14T19:35:28.544Z,67.68
2019-04-14T19:37:58.552Z,68.24
2019-04-14T19:40:28.221Z,68.26
2019-04-14T19:42:58.303Z,68.64
2019-04-14T19:45:28.087Z,68.84
2019-04-14T19:47:58.099Z,69.29
2019-04-14T19:50:28.146Z,69.14
2019-04-14T19:52:58.279Z,69.21
2019-04-14T19:55:27.982Z,69.50
2019-04-14T19:57:57.930Z,69.65
2019-04-14T20:00:28.548Z,69.83
2019-04-14T20:02:58.352Z,70.15
2019-04-14T20:05:28.607Z,70.07
2019-04-14T20:07:58.557Z,70.01
2019-04-14T20:10:28.711Z,69.92
2019-04-14T20:12:58.651Z,70.08
2019-04-14T20:15:30.266Z,70.10
2019-04-14T20:18:14.920Z,70.37
2019-04-14T20:20:55.436Z,70.50
2019-04-14T20:23:38.946Z,70.68
2019-04-14T20:26:26.642Z,70.83
2019-04-14T20:29:00.726Z,70.93
2019-04-14T20:31:37.439Z,70.87
2019-04-14T20:34:07.397Z,70.98
2019-04-14T20:36:37.433Z,71.19
2019-04-14T20:39:10.746Z,71.12
2019-04-14T20:41:40.834Z,71.39
2019-04-14T20:44:10.487Z,71.61
2019-04-14T20:46:40.186Z,71.70
2019-04-14T20:49:10.134Z,71.66
2019-04-14T20:51:40.255Z,71.66
2019-04-14T20:54:10.042Z,71.79
2019-04-14T20:56:39.622Z,71.92
2019-04-14T20:59:09.773Z,71.82
2019-04-14T21:01:41.413Z,71.75
2019-04-14T21:04:18.968Z,71.73
2019-04-14T21:06:57.975Z,71.75
2019-04-14T21:09:27.763Z,71.74
2019-04-14T21:11:57.716Z,71.65
2019-04-14T21:14:30.981Z,71.84
2019-04-14T21:17:08.506Z,72.07
2019-04-14T21:19:43.072Z,71.74
2019-04-14T21:22:30.778Z,71.82
2019-04-14T21:25:08.457Z,71.85
2019-04-14T21:27:56.179Z,71.87
2019-04-14T21:30:45.647Z,71.96
2019-04-14T21:33:17.058Z,72.07
2019-04-14T21:35:51.567Z,72.47
2019-04-14T21:38:41.016Z,72.60
2019-04-14T21:41:12.477Z,72.60
2019-04-14T21:43:42.626Z,72.48
2019-04-14T21:46:12.604Z,72.38
2019-04-14T21:48:42.787Z,72.19
2019-04-14T21:51:13.123Z,72.50
2019-04-14T21:53:43.786Z,72.57
2019-04-14T21:56:14.995Z,72.51
2019-04-14T21:58:53.441Z,72.63
2019-04-14T22:01:50.281Z,72.89
2019-04-14T22:04:20.872Z,73.31
2019-04-14T22:06:52.442Z,73.34
2019-04-14T22:09:29.429Z,73.39
2019-04-14T22:11:59.755Z,73.37
2019-04-14T22:14:29.327Z,73.46
2019-04-14T22:16:58.872Z,73.67
2019-04-14T22:19:29.471Z,73.90
2019-04-14T22:21:59.070Z,73.94
2019-04-14T22:24:28.612Z,73.75
2019-04-14T22:26:58.197Z,74.01
2019-04-14T22:29:27.753Z,73.99
2019-04-14T22:31:57.297Z,74.24
2019-04-14T22:34:26.951Z,74.04
2019-04-14T22:36:56.515Z,74.17
2019-04-14T22:39:26.154Z,74.29
2019-04-14T22:41:55.694Z,74.43
2019-04-14T22:44:25.225Z,74.18
2019-04-14T22:46:54.882Z,74.72
2019-04-14T22:49:24.448Z,74.73
2019-04-14T22:51:54.011Z,74.74
2019-04-14T22:54:23.572Z,74.95
2019-04-14T22:56:53.131Z,74.91
2019-04-14T22:59:22.720Z,74.83
2019-04-14T23:02:00.211Z,74.88
2019-04-14T23:04:32.985Z,74.93
2019-04-14T23:07:19.167Z,74.86
2019-04-14T23:09:50.496Z,74.78
2019-04-14T23:12:33.761Z,74.81
2019-04-14T23:15:22.346Z,75.35
2019-04-14T23:17:59.144Z,75.33
2019-04-14T23:20:33.600Z,75.11
2019-04-14T23:23:16.730Z,75.34
2019-04-14T23:25:46.264Z,75.38
2019-04-14T23:28:16.854Z,75.24
2019-04-14T23:30:46.466Z,75.36
2019-04-14T23:33:16.017Z,75.17
2019-04-14T23:35:45.595Z,75.08
2019-04-14T23:38:15.149Z,75.10
2019-04-14T23:40:44.731Z,75.06
2019-04-14T23:43:14.362Z,75.22
2019-04-14T23:45:43.937Z,75.15
2019-04-14T23:48:13.509Z,75.07
2019-04-14T23:50:43.069Z,75.27
2019-04-14T23:53:12.628Z,75.35
2019-04-14T23:55:42.179Z,75.58
2019-04-14T23:58:11.758Z,75.47
